createdAt,value
2023-01-13T00:00:03.036Z,7.64
2023-01-13T00:02:38.351Z,7.59
2023-01-13T00:05:11.204Z,7.54
2023-01-13T00:07:40.911Z,7.50
2023-01-13T00:10:11.245Z,7.44
2023-01-13T00:12:42.103Z,7.40
2023-01-13T00:15:09.790Z,7.36
2023-01-13T00:17:36.511Z,7.33
2023-01-13T00:20:03.843Z,7.27
2023-01-13T00:22:34.936Z,7.24
2023-01-13T00:25:01.845Z,7.20
2023-01-13T00:27:31.590Z,7.18
2023-01-13T00:29:58.633Z,7.14
2023-01-13T00:32:25.109Z,7.11
2023-01-13T00:34:51.613Z,7.06
2023-01-13T00:37:18.280Z,7.04
2023-01-13T00:39:47.119Z,7.06
2023-01-13T00:42:32.176Z,7.03
2023-01-13T00:44:58.687Z,7.04
2023-01-13T00:47:25.425Z,7.03
2023-01-13T00:49:51.877Z,7.02
2023-01-13T00:52:19.509Z,6.99
2023-01-13T00:54:45.949Z,6.97
2023-01-13T00:57:21.728Z,6.98
2023-01-13T00:59:49.635Z,6.99
2023-01-13T01:02:16.400Z,7.02
2023-01-13T01:04:42.921Z,7.02
2023-01-13T01:07:09.372Z,6.99
2023-01-13T01:09:35.922Z,6.99
2023-01-13T01:12:05.430Z,6.99
2023-01-13T01:14:31.963Z,6.99
2023-01-13T01:16:58.581Z,7.01
2023-01-13T01:19:25.131Z,7.02
2023-01-13T01:21:51.646Z,6.99
2023-01-13T01:24:19.333Z,7.00
2023-01-13T01:26:45.842Z,7.00
2023-01-13T01:29:15.330Z,7.01
2023-01-13T01:31:45.210Z,7.02
2023-01-13T01:34:11.794Z,6.99
2023-01-13T01:36:39.141Z,7.00
2023-01-13T01:39:07.467Z,7.00
2023-01-13T01:41:35.603Z,7.01
2023-01-13T01:44:07.477Z,7.04
2023-01-13T01:46:35.983Z,7.04
2023-01-13T01:49:05.627Z,7.02
2023-01-13T01:51:36.928Z,7.06
2023-01-13T01:54:09.083Z,7.04
2023-01-13T01:56:36.805Z,7.04
2023-01-13T01:59:09.619Z,7.03
2023-01-13T02:01:37.686Z,7.01
2023-01-13T02:04:15.268Z,7.02
2023-01-13T02:06:44.336Z,7.01
2023-01-13T02:09:14.047Z,7.00
2023-01-13T02:11:59.188Z,6.99
2023-01-13T02:14:28.438Z,6.94
2023-01-13T02:17:16.291Z,6.88
2023-01-13T02:20:20.078Z,6.90
2023-01-13T02:23:04.637Z,6.88
2023-01-13T02:26:29.850Z,6.85
2023-01-13T02:29:56.944Z,6.87
2023-01-13T02:32:41.138Z,6.86
2023-01-13T02:35:24.103Z,6.85
2023-01-13T02:37:55.987Z,6.85
2023-01-13T02:40:48.757Z,6.84
2023-01-13T02:43:52.780Z,6.86
2023-01-13T02:46:30.279Z,6.86
2023-01-13T02:49:01.305Z,6.87
2023-01-13T02:51:31.326Z,6.86
2023-01-13T02:54:07.255Z,6.90
2023-01-13T02:56:42.823Z,6.92
2023-01-13T02:59:10.486Z,6.93
2023-01-13T03:01:37.759Z,6.94
2023-01-13T03:04:15.679Z,6.91
2023-01-13T03:07:06.440Z,6.91
2023-01-13T03:09:41.706Z,6.93
2023-01-13T03:12:26.320Z,6.97
2023-01-13T03:14:59.643Z,6.97
2023-01-13T03:17:42.679Z,6.98
2023-01-13T03:20:26.169Z,6.93
2023-01-13T03:23:08.565Z,6.89
2023-01-13T03:25:43.395Z,6.84
2023-01-13T03:28:27.023Z,6.87
2023-01-13T03:30:59.551Z,6.86
2023-01-13T03:33:32.741Z,6.85
2023-01-13T03:36:05.311Z,6.83
2023-01-13T03:38:35.691Z,6.79
2023-01-13T03:41:08.947Z,6.77
2023-01-13T03:44:06.797Z,6.78
2023-01-13T03:46:41.991Z,6.86
2023-01-13T03:49:16.501Z,6.89
2023-01-13T03:51:49.948Z,6.89
2023-01-13T03:54:20.073Z,6.87
2023-01-13T03:56:51.487Z,6.86
2023-01-13T03:59:22.963Z,6.84
2023-01-13T04:02:43.817Z,6.83
2023-01-13T04:05:13.955Z,6.85
2023-01-13T04:07:51.121Z,6.79
2023-01-13T04:10:34.473Z,6.74
2023-01-13T04:13:12.345Z,6.70
2023-01-13T04:15:42.841Z,6.74
2023-01-13T04:18:13.547Z,6.69
2023-01-13T04:20:44.268Z,6.66
2023-01-13T04:23:12.164Z,6.70
2023-01-13T04:25:42.294Z,6.70
2023-01-13T04:28:09.613Z,6.65
2023-01-13T04:30:36.462Z,6.63
2023-01-13T04:33:06.557Z,6.65
2023-01-13T04:35:34.754Z,6.61
2023-01-13T04:38:10.767Z,6.60
2023-01-13T04:40:37.860Z,6.55
2023-01-13T04:43:04.499Z,6.53
2023-01-13T04:45:31.533Z,6.54
2023-01-13T04:47:58.212Z,6.51
2023-01-13T04:50:25.351Z,6.52
2023-01-13T04:52:53.183Z,6.49
2023-01-13T04:55:21.511Z,6.50
2023-01-13T04:57:50.913Z,6.48
2023-01-13T05:00:21.111Z,6.45
2023-01-13T05:02:50.718Z,6.45
2023-01-13T05:05:17.943Z,6.46
2023-01-13T05:07:46.119Z,6.55
2023-01-13T05:10:12.903Z,6.58
2023-01-13T05:12:58.732Z,6.60
2023-01-13T05:15:43.920Z,6.55
2023-01-13T05:18:11.037Z,6.57
2023-01-13T05:20:37.649Z,6.60
2023-01-13T05:23:22.667Z,6.62
2023-01-13T05:25:49.569Z,6.65
2023-01-13T05:28:16.973Z,6.60
2023-01-13T05:30:47.107Z,6.59
2023-01-13T05:33:16.637Z,6.60
2023-01-13T05:35:45.323Z,6.62
2023-01-13T05:38:13.348Z,6.64
2023-01-13T05:40:59.707Z,6.62
2023-01-13T05:43:27.961Z,6.59
2023-01-13T05:46:01.806Z,6.56
2023-01-13T05:48:30.051Z,6.54
2023-01-13T05:50:57.109Z,6.52
2023-01-13T05:53:25.999Z,6.52
2023-01-13T05:55:52.838Z,6.46
2023-01-13T05:58:20.979Z,6.43
2023-01-13T06:00:48.028Z,6.44
2023-01-13T06:03:16.428Z,6.42
2023-01-13T06:05:43.564Z,6.39
2023-01-13T06:08:13.013Z,6.42
2023-01-13T06:10:39.590Z,6.37
2023-01-13T06:13:06.803Z,6.38
2023-01-13T06:15:33.376Z,6.37
2023-01-13T06:18:02.187Z,6.33
2023-01-13T06:20:28.709Z,6.33
2023-01-13T06:22:55.406Z,6.36
2023-01-13T06:25:42.628Z,6.37
2023-01-13T06:28:12.107Z,6.39
2023-01-13T06:30:43.203Z,6.44
2023-01-13T06:33:14.800Z,6.46
2023-01-13T06:35:48.553Z,6.49
2023-01-13T06:38:18.981Z,6.56
2023-01-13T06:40:49.796Z,6.58
2023-01-13T06:43:17.335Z,6.59
2023-01-13T06:45:55.010Z,6.61
2023-01-13T06:48:36.644Z,6.64
2023-01-13T06:51:04.746Z,6.66
2023-01-13T06:53:31.589Z,6.67
2023-01-13T06:55:59.469Z,6.68
2023-01-13T06:58:26.193Z,6.67
2023-01-13T07:00:53.642Z,6.68
2023-01-13T07:03:20.288Z,6.68
2023-01-13T07:05:54.829Z,6.71
2023-01-13T07:08:24.619Z,6.70
2023-01-13T07:10:52.908Z,6.71
2023-01-13T07:13:38.153Z,6.70
2023-01-13T07:16:06.929Z,6.76
2023-01-13T07:18:34.832Z,6.76
2023-01-13T07:21:08.666Z,6.76
2023-01-13T07:23:41.224Z,6.74
2023-01-13T07:26:11.432Z,6.82
2023-01-13T07:28:41.735Z,6.83
2023-01-13T07:31:34.226Z,6.83
2023-01-13T07:34:03.270Z,6.83
2023-01-13T07:36:30.756Z,6.86
2023-01-13T07:38:59.498Z,6.88
2023-01-13T07:41:44.901Z,6.86
2023-01-13T07:44:11.503Z,6.92
2023-01-13T07:46:39.206Z,6.92
2023-01-13T07:49:06.868Z,6.94
2023-01-13T07:51:38.060Z,6.96
2023-01-13T07:54:07.383Z,6.96
2023-01-13T07:56:33.975Z,7.00
2023-01-13T07:59:01.406Z,7.00
2023-01-13T08:01:29.778Z,6.99
2023-01-13T08:03:58.905Z,7.02
2023-01-13T08:06:28.777Z,7.02
2023-01-13T08:08:55.484Z,7.06
2023-01-13T08:11:23.549Z,7.07
2023-01-13T08:13:50.588Z,7.07
2023-01-13T08:16:20.168Z,7.09
2023-01-13T08:18:46.681Z,7.08
2023-01-13T08:21:14.945Z,7.10
2023-01-13T08:23:43.480Z,7.09
2023-01-13T08:26:16.350Z,7.08
2023-01-13T08:28:43.528Z,7.12
2023-01-13T08:31:13.958Z,7.15
2023-01-13T08:33:41.821Z,7.19
2023-01-13T08:36:12.350Z,7.22
2023-01-13T08:38:40.346Z,7.23
2023-01-13T08:41:12.379Z,7.19
2023-01-13T08:43:39.118Z,7.16
2023-01-13T08:46:08.807Z,7.15
2023-01-13T08:48:35.393Z,7.12
2023-01-13T08:51:04.736Z,7.12
2023-01-13T08:53:31.513Z,7.09
2023-01-13T08:55:58.167Z,7.07
2023-01-13T08:58:25.644Z,7.05
2023-01-13T09:00:55.296Z,7.03
2023-01-13T09:03:21.923Z,7.00
2023-01-13T09:05:48.600Z,6.95
2023-01-13T09:08:15.373Z,6.93
2023-01-13T09:10:42.117Z,6.92
2023-01-13T09:13:12.783Z,6.92
2023-01-13T09:15:45.112Z,6.92
2023-01-13T09:18:12.325Z,6.93
2023-01-13T09:20:42.071Z,6.91
2023-01-13T09:23:10.576Z,6.92
2023-01-13T09:25:42.100Z,6.91
2023-01-13T09:28:11.765Z,6.90
2023-01-13T09:30:40.931Z,6.87
2023-01-13T09:33:28.732Z,6.84
2023-01-13T09:35:59.087Z,6.81
2023-01-13T09:38:25.932Z,6.79
2023-01-13T09:40:52.982Z,6.79
2023-01-13T09:44:00.719Z,6.79
2023-01-13T09:46:47.447Z,6.81
2023-01-13T09:49:31.072Z,6.84
2023-01-13T09:52:08.041Z,6.90
2023-01-13T09:54:54.727Z,6.97
2023-01-13T09:57:21.843Z,7.01
2023-01-13T09:59:48.621Z,7.02
2023-01-13T10:02:36.618Z,7.03
2023-01-13T10:05:06.785Z,7.05
2023-01-13T10:07:37.173Z,7.06
2023-01-13T10:10:09.183Z,7.11
2023-01-13T10:12:54.522Z,7.14
2023-01-13T10:15:28.240Z,7.12
2023-01-13T10:18:29.963Z,7.11
2023-01-13T10:20:56.518Z,7.13
2023-01-13T10:23:35.362Z,7.12
2023-01-13T10:26:25.134Z,7.12
2023-01-13T10:28:53.486Z,7.15
2023-01-13T10:31:22.139Z,7.16
2023-01-13T10:33:57.558Z,7.20
2023-01-13T10:36:24.376Z,7.23
2023-01-13T10:38:51.053Z,7.27
2023-01-13T10:41:20.082Z,7.30
2023-01-13T10:43:52.643Z,7.29
2023-01-13T10:46:20.617Z,7.30
2023-01-13T10:48:58.910Z,7.29
2023-01-13T10:51:37.767Z,7.30
2023-01-13T10:54:13.500Z,7.28
2023-01-13T10:56:43.007Z,7.30
2023-01-13T10:59:22.256Z,7.35
2023-01-13T11:02:03.966Z,7.40
2023-01-13T11:04:36.872Z,7.43
2023-01-13T11:07:07.327Z,7.44
2023-01-13T11:09:34.359Z,7.46
2023-01-13T11:12:02.972Z,7.49
2023-01-13T11:14:42.724Z,7.51
2023-01-13T11:17:16.407Z,7.52
2023-01-13T11:19:51.031Z,7.53
2023-01-13T11:22:23.931Z,7.53
2023-01-13T11:25:02.690Z,7.53
2023-01-13T11:27:47.676Z,7.55
2023-01-13T11:30:34.755Z,7.59
2023-01-13T11:33:04.923Z,7.64
2023-01-13T11:35:35.903Z,7.70
2023-01-13T11:38:17.590Z,7.77
2023-01-13T11:40:48.967Z,7.81
2023-01-13T11:43:42.707Z,7.84
2023-01-13T11:46:10.221Z,7.87
2023-01-13T11:48:42.090Z,7.92
2023-01-13T11:51:22.680Z,7.94
2023-01-13T11:53:58.040Z,7.95
2023-01-13T11:56:43.103Z,7.97
2023-01-13T11:59:27.743Z,7.99
2023-01-13T12:02:32.577Z,8.01
2023-01-13T12:04:59.200Z,8.01
2023-01-13T12:07:49.020Z,8.02
2023-01-13T12:10:54.322Z,8.04
2023-01-13T12:13:34.730Z,8.05
2023-01-13T12:16:14.862Z,8.13
2023-01-13T12:19:07.863Z,8.12
2023-01-13T12:21:57.700Z,8.09
2023-01-13T12:24:55.228Z,8.07
2023-01-13T12:27:42.211Z,8.08
2023-01-13T12:33:21.063Z,8.11
2023-01-13T12:36:15.950Z,8.15
2023-01-13T12:38:58.808Z,8.15
2023-01-13T12:42:11.596Z,8.18
2023-01-13T12:45:10.121Z,8.20
2023-01-13T12:47:52.329Z,8.23
2023-01-13T12:50:44.568Z,8.24
2023-01-13T12:53:32.785Z,8.26
2023-01-13T12:56:55.632Z,8.29
2023-01-13T13:00:50.608Z,8.34
2023-01-13T13:04:18.888Z,8.38
2023-01-13T13:07:10.310Z,8.42
2023-01-13T13:09:44.021Z,8.42
2023-01-13T13:12:49.967Z,8.39
2023-01-13T13:15:25.472Z,8.37
2023-01-13T13:18:17.299Z,8.37
2023-01-13T13:21:07.463Z,8.38
2023-01-13T13:23:40.222Z,8.41
2023-01-13T13:29:44.450Z,8.44
2023-01-13T13:32:45.323Z,8.47
2023-01-13T13:35:52.895Z,8.49
2023-01-13T13:39:02.930Z,8.51
2023-01-13T13:41:49.051Z,8.55
2023-01-13T13:44:50.168Z,8.55
2023-01-13T13:47:16.705Z,8.54
2023-01-13T13:49:53.850Z,8.55
2023-01-13T13:52:41.625Z,8.54
2023-01-13T13:55:18.412Z,8.51
2023-01-13T13:57:48.548Z,8.50
2023-01-13T14:00:15.502Z,8.50
2023-01-13T14:02:49.504Z,8.51
2023-01-13T14:05:25.309Z,8.50
2023-01-13T14:07:59.415Z,8.49
2023-01-13T14:10:34.932Z,8.48
2023-01-13T14:13:12.921Z,8.49
2023-01-13T14:15:41.099Z,8.49
2023-01-13T14:18:15.957Z,8.48
2023-01-13T14:20:43.591Z,8.47
2023-01-13T14:23:18.055Z,8.45
2023-01-13T14:25:51.693Z,8.41
2023-01-13T14:28:26.571Z,8.40
2023-01-13T14:30:56.701Z,8.37
2023-01-13T14:33:34.068Z,8.38
2023-01-13T14:36:16.025Z,8.38
2023-01-13T14:38:45.323Z,8.38
2023-01-13T14:41:27.417Z,8.37
2023-01-13T14:43:59.250Z,8.37
2023-01-13T14:46:43.725Z,8.35
2023-01-13T14:49:37.499Z,8.36
2023-01-13T14:52:22.147Z,8.36
2023-01-13T14:55:10.228Z,8.37
2023-01-13T14:57:39.547Z,8.35
2023-01-13T15:00:15.425Z,8.32
2023-01-13T15:02:57.224Z,8.29
2023-01-13T15:05:32.006Z,8.26
2023-01-13T15:08:10.978Z,8.22
2023-01-13T15:11:02.591Z,8.22
2023-01-13T15:13:53.096Z,8.21
2023-01-13T15:16:25.444Z,8.21
2023-01-13T15:18:54.499Z,8.22
2023-01-13T15:21:21.488Z,8.22
2023-01-13T15:23:47.919Z,8.20
2023-01-13T15:26:21.918Z,8.21
2023-01-13T15:28:49.624Z,8.21
2023-01-13T15:31:16.726Z,8.21
2023-01-13T15:33:43.737Z,8.18
2023-01-13T15:36:28.665Z,8.15
2023-01-13T15:38:57.664Z,8.14
2023-01-13T15:41:44.995Z,8.13
2023-01-13T15:44:31.750Z,8.07
2023-01-13T15:47:01.396Z,8.04
2023-01-13T15:49:34.840Z,8.03
2023-01-13T15:52:16.058Z,8.00
2023-01-13T15:54:42.561Z,7.99
2023-01-13T15:57:26.251Z,7.99
2023-01-13T15:59:56.661Z,7.93
2023-01-13T16:02:24.283Z,7.90
2023-01-13T16:04:54.038Z,7.92
2023-01-13T16:07:22.320Z,7.94
2023-01-13T16:09:49.084Z,7.90
2023-01-13T16:12:16.153Z,7.90
2023-01-13T16:14:42.951Z,7.90
2023-01-13T16:17:16.059Z,7.90
2023-01-13T16:19:43.332Z,7.92
2023-01-13T16:22:14.487Z,7.94
2023-01-13T16:24:41.887Z,7.94
2023-01-13T16:27:19.992Z,7.98
2023-01-13T16:29:47.773Z,7.97
2023-01-13T16:32:14.906Z,7.97
2023-01-13T16:34:41.750Z,7.95
2023-01-13T16:37:23.811Z,7.91
2023-01-13T16:39:50.987Z,7.87
2023-01-13T16:42:20.775Z,7.86
2023-01-13T16:44:49.115Z,7.83
2023-01-13T16:47:20.355Z,7.82
2023-01-13T16:49:47.014Z,7.82
2023-01-13T16:52:13.657Z,7.81
2023-01-13T16:54:40.209Z,7.77
2023-01-13T16:57:07.896Z,7.69
2023-01-13T16:59:34.737Z,7.55
2023-01-13T17:02:03.545Z,7.44
2023-01-13T17:04:30.120Z,7.37
2023-01-13T17:07:06.686Z,7.31
2023-01-13T17:09:34.558Z,7.27
2023-01-13T17:12:01.515Z,7.18
2023-01-13T17:14:28.427Z,7.06
2023-01-13T17:16:58.015Z,6.98
2023-01-13T17:19:25.831Z,6.90
2023-01-13T17:21:55.059Z,6.86
2023-01-13T17:24:22.000Z,6.83
2023-01-13T17:26:50.565Z,6.81
2023-01-13T17:29:21.795Z,6.82
2023-01-13T17:31:49.534Z,6.84
2023-01-13T17:34:16.323Z,6.80
2023-01-13T17:36:44.067Z,6.79
2023-01-13T17:39:27.409Z,6.76
2023-01-13T17:41:55.911Z,6.73
2023-01-13T17:44:23.412Z,6.68
2023-01-13T17:46:50.606Z,6.64
2023-01-13T17:49:19.673Z,6.57
2023-01-13T17:51:48.301Z,6.51
2023-01-13T17:54:15.810Z,6.46
2023-01-13T17:56:43.524Z,6.43
2023-01-13T17:59:14.702Z,6.44
2023-01-13T18:01:41.975Z,6.42
2023-01-13T18:04:15.375Z,6.40
2023-01-13T18:06:41.975Z,6.38
2023-01-13T18:09:08.678Z,6.36
2023-01-13T18:11:35.344Z,6.35
2023-01-13T18:14:05.473Z,6.34
2023-01-13T18:16:32.780Z,6.32
2023-01-13T18:19:18.519Z,6.33
2023-01-13T18:22:05.449Z,6.35
2023-01-13T18:24:50.674Z,6.33
2023-01-13T18:27:19.491Z,6.27
2023-01-13T18:29:48.141Z,6.25
2023-01-13T18:32:14.906Z,6.24
2023-01-13T18:35:07.413Z,6.26
2023-01-13T18:40:26.799Z,6.24
2023-01-13T18:42:56.263Z,6.25
2023-01-13T18:45:31.093Z,6.29
2023-01-13T18:48:00.124Z,6.32
2023-01-13T18:50:30.267Z,6.34
2023-01-13T18:52:57.725Z,6.39
2023-01-13T18:55:25.081Z,6.43
2023-01-13T18:57:52.091Z,6.47
2023-01-13T19:00:21.480Z,6.51
2023-01-13T19:05:34.433Z,6.56
2023-01-13T19:08:01.102Z,6.57
2023-01-13T19:10:31.722Z,6.57
2023-01-13T19:12:58.325Z,6.59
2023-01-13T19:15:27.467Z,6.59
2023-01-13T19:17:54.057Z,6.57
2023-01-13T19:20:20.914Z,6.53
2023-01-13T19:22:53.855Z,6.54
2023-01-13T19:25:20.528Z,6.54
2023-01-13T19:27:47.080Z,6.54
2023-01-13T19:30:14.724Z,6.54
2023-01-13T19:32:41.496Z,6.54
2023-01-13T19:35:08.734Z,6.53
2023-01-13T19:37:37.070Z,6.47
2023-01-13T19:40:09.488Z,6.45
2023-01-13T19:42:56.207Z,6.42
2023-01-13T19:45:30.617Z,6.42
2023-01-13T19:47:59.158Z,6.43
2023-01-13T19:50:25.833Z,6.45
2023-01-13T19:52:53.076Z,6.47
2023-01-13T19:55:19.946Z,6.49
2023-01-13T19:57:46.705Z,6.50
2023-01-13T20:00:15.664Z,6.51
2023-01-13T20:02:47.913Z,6.52
2023-01-13T20:05:21.257Z,6.54
2023-01-13T20:07:49.742Z,6.56
2023-01-13T20:10:20.389Z,6.59
2023-01-13T20:12:47.083Z,6.59
2023-01-13T20:15:13.887Z,6.57
2023-01-13T20:17:41.577Z,6.54
2023-01-13T20:20:35.755Z,6.54
2023-01-13T20:23:07.797Z,6.48
2023-01-13T20:25:47.656Z,6.49
2023-01-13T20:28:14.731Z,6.53
2023-01-13T20:34:23.868Z,6.58
2023-01-13T20:36:54.129Z,6.55
2023-01-13T20:39:27.062Z,6.51
2023-01-13T20:42:13.795Z,6.52
2023-01-13T20:44:45.308Z,6.54
2023-01-13T20:47:12.636Z,6.58
2023-01-13T20:49:47.692Z,6.60
2023-01-13T20:52:14.686Z,6.60
2023-01-13T20:54:41.796Z,6.58
2023-01-13T20:57:19.103Z,6.57
2023-01-13T20:59:45.786Z,6.53
2023-01-13T21:02:15.113Z,6.45
2023-01-13T21:04:50.334Z,6.38
2023-01-13T21:07:17.020Z,6.35
2023-01-13T21:09:43.710Z,6.35
2023-01-13T21:12:32.765Z,6.36
2023-01-13T21:15:17.682Z,6.36
2023-01-13T21:18:03.709Z,6.33
2023-01-13T21:20:30.755Z,6.33
2023-01-13T21:22:57.314Z,6.36
2023-01-13T21:25:36.775Z,6.38
2023-01-13T21:28:25.425Z,6.38
2023-01-13T21:30:53.506Z,6.36
2023-01-13T21:33:21.642Z,6.36
2023-01-13T21:35:54.943Z,6.34
2023-01-13T21:38:22.004Z,6.29
2023-01-13T21:41:01.616Z,6.27
2023-01-13T21:43:51.160Z,6.28
2023-01-13T21:46:38.530Z,6.26
2023-01-13T21:49:07.347Z,6.27
2023-01-13T21:51:34.775Z,6.24
2023-01-13T21:54:01.745Z,6.22
2023-01-13T21:56:28.220Z,6.21
2023-01-13T21:58:57.629Z,6.20
2023-01-13T22:01:24.670Z,6.20
2023-01-13T22:04:09.898Z,6.22
2023-01-13T22:06:36.506Z,6.23
2023-01-13T22:09:03.211Z,6.24
2023-01-13T22:11:31.764Z,6.26
2023-01-13T22:14:09.468Z,6.32
2023-01-13T22:16:50.104Z,6.33
2023-01-13T22:19:19.623Z,6.33
2023-01-13T22:21:46.280Z,6.35
2023-01-13T22:24:12.813Z,6.41
2023-01-13T22:26:39.482Z,6.47
2023-01-13T22:29:06.482Z,6.51
2023-01-13T22:31:33.337Z,6.52
2023-01-13T22:33:59.882Z,6.55
2023-01-13T22:36:26.941Z,6.57
2023-01-13T22:38:55.904Z,6.53
2023-01-13T22:41:23.522Z,6.49
2023-01-13T22:43:50.091Z,6.47
2023-01-13T22:46:19.672Z,6.43
2023-01-13T22:48:48.538Z,6.40
2023-01-13T22:51:18.650Z,6.40
2023-01-13T22:53:47.329Z,6.40
2023-01-13T22:56:19.450Z,6.40
2023-01-13T22:58:46.128Z,6.37
2023-01-13T23:01:15.579Z,6.34
2023-01-13T23:03:42.489Z,6.34
2023-01-13T23:06:09.274Z,6.33
2023-01-13T23:08:41.135Z,6.36
2023-01-13T23:11:10.131Z,6.36
2023-01-13T23:13:42.193Z,6.35
2023-01-13T23:16:12.830Z,6.34
2023-01-13T23:18:42.581Z,6.31
2023-01-13T23:21:14.746Z,6.34
2023-01-13T23:23:41.872Z,6.35
2023-01-13T23:26:09.410Z,6.35
2023-01-13T23:28:36.598Z,6.36
2023-01-13T23:31:22.146Z,6.38
2023-01-13T23:33:49.176Z,6.43
2023-01-13T23:36:19.499Z,6.46
2023-01-13T23:38:46.897Z,6.48
2023-01-13T23:41:15.555Z,6.49
2023-01-13T23:43:49.082Z,6.49
2023-01-13T23:46:17.032Z,6.51
2023-01-13T23:48:43.688Z,6.52
2023-01-13T23:51:13.763Z,6.53
2023-01-13T23:53:43.849Z,6.56
2023-01-13T23:56:13.927Z,6.55
2023-01-13T23:58:41.823Z,6.54
